sensor_id;sensor_type;location;lat;lon;timestamp;P1;durP1;ratioP1;P2;durP2;ratioP2
31638;SDS011;18248;51.522;7.020;2023-05-10T00:01:53;22.95;;;13.32;;
31638;SDS011;18248;51.522;7.020;2023-05-10T00:04:52;24.02;;;14.75;;
31638;SDS011;18248;51.522;7.020;2023-05-10T00:07:50;19.33;;;13.02;;
31638;SDS011;18248;51.522;7.020;2023-05-10T00:10:49;25.55;;;16.73;;
31638;SDS011;18248;51.522;7.020;2023-05-10T00:13:48;25.30;;;14.43;;
31638;SDS011;18248;51.522;7.020;2023-05-10T00:16:46;19.38;;;13.55;;
31638;SDS011;18248;51.522;7.020;2023-05-10T00:19:45;24.27;;;15.00;;
31638;SDS011;18248;51.522;7.020;2023-05-10T00:22:43;22.73;;;14.60;;
31638;SDS011;18248;51.522;7.020;2023-05-10T00:25:42;28.58;;;17.05;;
31638;SDS011;18248;51.522;7.020;2023-05-10T00:28:40;22.42;;;13.02;;
31638;SDS011;18248;51.522;7.020;2023-05-10T00:31:39;24.40;;;14.98;;
31638;SDS011;18248;51.522;7.020;2023-05-10T00:34:37;28.20;;;17.40;;
31638;SDS011;18248;51.522;7.020;2023-05-10T00:37:36;25.13;;;15.80;;
31638;SDS011;18248;51.522;7.020;2023-05-10T00:40:35;21.70;;;14.13;;
31638;SDS011;18248;51.522;7.020;2023-05-10T00:43:35;21.33;;;14.55;;
31638;SDS011;18248;51.522;7.020;2023-05-10T00:46:33;20.60;;;12.88;;
31638;SDS011;18248;51.522;7.020;2023-05-10T00:49:32;17.25;;;11.32;;
31638;SDS011;18248;51.522;7.020;2023-05-10T00:52:32;17.90;;;11.60;;
31638;SDS011;18248;51.522;7.020;2023-05-10T00:55:31;13.77;;;9.90;;
31638;SDS011;18248;51.522;7.020;2023-05-10T00:58:29;16.92;;;10.63;;
31638;SDS011;18248;51.522;7.020;2023-05-10T01:01:28;14.15;;;9.85;;
31638;SDS011;18248;51.522;7.020;2023-05-10T01:04:29;14.95;;;9.23;;
31638;SDS011;18248;51.522;7.020;2023-05-10T01:07:28;14.65;;;10.30;;
31638;SDS011;18248;51.522;7.020;2023-05-10T01:10:27;17.15;;;9.10;;
31638;SDS011;18248;51.522;7.020;2023-05-10T01:16:32;13.85;;;9.02;;
31638;SDS011;18248;51.522;7.020;2023-05-10T01:19:34;15.27;;;9.90;;
31638;SDS011;18248;51.522;7.020;2023-05-10T01:39:37;10.57;;;7.87;;
31638;SDS011;18248;51.522;7.020;2023-05-10T01:42:50;12.73;;;8.38;;
31638;SDS011;18248;51.522;7.020;2023-05-10T01:46:14;12.80;;;8.85;;
31638;SDS011;18248;51.522;7.020;2023-05-10T01:49:19;15.15;;;10.80;;
31638;SDS011;18248;51.522;7.020;2023-05-10T01:53:05;19.40;;;9.75;;
31638;SDS011;18248;51.522;7.020;2023-05-10T01:55:49;18.75;;;12.38;;
31638;SDS011;18248;51.522;7.020;2023-05-10T01:58:50;23.15;;;14.68;;
31638;SDS011;18248;51.522;7.020;2023-05-10T02:01:50;18.55;;;12.82;;
31638;SDS011;18248;51.522;7.020;2023-05-10T02:04:51;21.85;;;12.80;;
31638;SDS011;18248;51.522;7.020;2023-05-10T02:07:52;22.17;;;14.48;;
31638;SDS011;18248;51.522;7.020;2023-05-10T02:10:55;21.42;;;12.88;;
31638;SDS011;18248;51.522;7.020;2023-05-10T02:13:55;23.73;;;14.65;;
31638;SDS011;18248;51.522;7.020;2023-05-10T02:16:55;20.30;;;13.00;;
31638;SDS011;18248;51.522;7.020;2023-05-10T02:19:54;20.30;;;13.07;;
31638;SDS011;18248;51.522;7.020;2023-05-10T02:22:55;23.27;;;14.98;;
31638;SDS011;18248;51.522;7.020;2023-05-10T02:25:56;23.05;;;13.95;;
31638;SDS011;18248;51.522;7.020;2023-05-10T02:28:55;20.30;;;12.77;;
31638;SDS011;18248;51.522;7.020;2023-05-10T02:31:56;23.17;;;14.55;;
31638;SDS011;18248;51.522;7.020;2023-05-10T02:34:56;20.65;;;12.10;;
31638;SDS011;18248;51.522;7.020;2023-05-10T02:37:56;23.98;;;14.65;;
31638;SDS011;18248;51.522;7.020;2023-05-10T02:40:56;22.30;;;14.07;;
31638;SDS011;18248;51.522;7.020;2023-05-10T02:43:57;19.45;;;12.48;;
31638;SDS011;18248;51.522;7.020;2023-05-10T02:46:58;25.67;;;15.07;;
31638;SDS011;18248;51.522;7.020;2023-05-10T02:49:57;21.85;;;14.80;;
31638;SDS011;18248;51.522;7.020;2023-05-10T02:52:59;19.23;;;12.90;;
31638;SDS011;18248;51.522;7.020;2023-05-10T02:56:00;23.30;;;13.50;;
31638;SDS011;18248;51.522;7.020;2023-05-10T02:59:04;24.63;;;15.88;;
31638;SDS011;18248;51.522;7.020;2023-05-10T03:02:03;20.67;;;13.02;;
31638;SDS011;18248;51.522;7.020;2023-05-10T03:05:04;30.40;;;17.55;;
31638;SDS011;18248;51.522;7.020;2023-05-10T03:08:03;29.98;;;16.60;;
31638;SDS011;18248;51.522;7.020;2023-05-10T03:18:09;21.55;;;13.73;;
31638;SDS011;18248;51.522;7.020;2023-05-10T03:21:11;29.25;;;14.20;;
31638;SDS011;18248;51.522;7.020;2023-05-10T03:24:11;25.05;;;14.55;;
31638;SDS011;18248;51.522;7.020;2023-05-10T03:27:14;30.13;;;16.88;;
31638;SDS011;18248;51.522;7.020;2023-05-10T03:30:14;30.23;;;16.90;;
31638;SDS011;18248;51.522;7.020;2023-05-10T03:33:14;34.22;;;18.13;;
31638;SDS011;18248;51.522;7.020;2023-05-10T03:36:14;32.45;;;18.77;;
31638;SDS011;18248;51.522;7.020;2023-05-10T03:39:13;28.80;;;17.67;;
31638;SDS011;18248;51.522;7.020;2023-05-10T03:42:11;31.98;;;17.42;;
31638;SDS011;18248;51.522;7.020;2023-05-10T03:45:11;35.40;;;18.70;;
31638;SDS011;18248;51.522;7.020;2023-05-10T03:48:10;35.17;;;19.63;;
31638;SDS011;18248;51.522;7.020;2023-05-10T03:51:08;39.78;;;21.08;;
31638;SDS011;18248;51.522;7.020;2023-05-10T03:54:07;41.40;;;23.08;;
31638;SDS011;18248;51.522;7.020;2023-05-10T03:57:05;36.63;;;21.15;;
31638;SDS011;18248;51.522;7.020;2023-05-10T04:00:05;35.28;;;20.15;;
31638;SDS011;18248;51.522;7.020;2023-05-10T04:03:06;46.88;;;23.73;;
31638;SDS011;18248;51.522;7.020;2023-05-10T04:06:04;40.55;;;22.38;;
31638;SDS011;18248;51.522;7.020;2023-05-10T04:09:03;40.45;;;23.25;;
31638;SDS011;18248;51.522;7.020;2023-05-10T04:12:02;40.25;;;22.85;;
31638;SDS011;18248;51.522;7.020;2023-05-10T04:15:00;40.95;;;21.92;;
31638;SDS011;18248;51.522;7.020;2023-05-10T04:17:59;42.00;;;24.15;;
31638;SDS011;18248;51.522;7.020;2023-05-10T04:20:58;45.28;;;26.73;;
31638;SDS011;18248;51.522;7.020;2023-05-10T04:23:56;46.05;;;24.52;;
31638;SDS011;18248;51.522;7.020;2023-05-10T04:26:56;40.83;;;24.45;;
31638;SDS011;18248;51.522;7.020;2023-05-10T04:29:54;47.67;;;24.55;;
31638;SDS011;18248;51.522;7.020;2023-05-10T04:32:53;51.80;;;29.67;;
31638;SDS011;18248;51.522;7.020;2023-05-10T04:35:51;47.53;;;27.65;;
31638;SDS011;18248;51.522;7.020;2023-05-10T04:38:50;51.72;;;27.80;;
31638;SDS011;18248;51.522;7.020;2023-05-10T04:41:48;49.97;;;29.20;;
31638;SDS011;18248;51.522;7.020;2023-05-10T04:44:47;48.03;;;28.25;;
31638;SDS011;18248;51.522;7.020;2023-05-10T04:47:45;56.85;;;30.63;;
31638;SDS011;18248;51.522;7.020;2023-05-10T04:50:44;62.45;;;34.05;;
31638;SDS011;18248;51.522;7.020;2023-05-10T04:53:42;61.53;;;31.67;;
31638;SDS011;18248;51.522;7.020;2023-05-10T04:56:41;66.32;;;36.90;;
31638;SDS011;18248;51.522;7.020;2023-05-10T04:59:40;65.15;;;35.65;;
31638;SDS011;18248;51.522;7.020;2023-05-10T05:02:38;72.97;;;38.55;;
31638;SDS011;18248;51.522;7.020;2023-05-10T05:05:41;69.73;;;38.53;;
31638;SDS011;18248;51.522;7.020;2023-05-10T05:08:40;63.70;;;35.10;;
31638;SDS011;18248;51.522;7.020;2023-05-10T05:11:38;70.68;;;36.97;;
31638;SDS011;18248;51.522;7.020;2023-05-10T05:14:38;62.70;;;35.95;;
31638;SDS011;18248;51.522;7.020;2023-05-10T05:17:36;65.70;;;34.47;;
31638;SDS011;18248;51.522;7.020;2023-05-10T05:20:35;62.72;;;35.97;;
31638;SDS011;18248;51.522;7.020;2023-05-10T05:23:33;76.00;;;38.38;;
31638;SDS011;18248;51.522;7.020;2023-05-10T05:26:33;59.13;;;33.53;;
31638;SDS011;18248;51.522;7.020;2023-05-10T05:29:32;69.22;;;38.45;;
31638;SDS011;18248;51.522;7.020;2023-05-10T05:32:31;68.47;;;37.03;;
31638;SDS011;18248;51.522;7.020;2023-05-10T05:35:29;75.35;;;40.47;;
31638;SDS011;18248;51.522;7.020;2023-05-10T05:38:28;61.00;;;35.60;;
31638;SDS011;18248;51.522;7.020;2023-05-10T05:41:26;59.67;;;34.20;;
31638;SDS011;18248;51.522;7.020;2023-05-10T05:44:25;68.03;;;35.30;;
31638;SDS011;18248;51.522;7.020;2023-05-10T05:47:25;59.10;;;34.80;;
31638;SDS011;18248;51.522;7.020;2023-05-10T05:50:24;78.72;;;41.38;;
31638;SDS011;18248;51.522;7.020;2023-05-10T05:53:23;60.20;;;35.08;;
31638;SDS011;18248;51.522;7.020;2023-05-10T05:56:21;64.47;;;37.03;;
31638;SDS011;18248;51.522;7.020;2023-05-10T05:59:22;68.43;;;39.40;;
31638;SDS011;18248;51.522;7.020;2023-05-10T06:02:21;61.47;;;36.72;;
31638;SDS011;18248;51.522;7.020;2023-05-10T06:05:19;59.38;;;35.63;;
31638;SDS011;18248;51.522;7.020;2023-05-10T06:08:18;59.60;;;34.80;;
31638;SDS011;18248;51.522;7.020;2023-05-10T06:11:18;63.35;;;36.65;;
31638;SDS011;18248;51.522;7.020;2023-05-10T06:14:16;74.38;;;40.10;;
31638;SDS011;18248;51.522;7.020;2023-05-10T06:17:15;59.60;;;36.38;;
31638;SDS011;18248;51.522;7.020;2023-05-10T06:20:13;61.47;;;36.28;;
31638;SDS011;18248;51.522;7.020;2023-05-10T06:23:13;65.20;;;36.95;;
31638;SDS011;18248;51.522;7.020;2023-05-10T06:26:11;56.80;;;34.45;;
31638;SDS011;18248;51.522;7.020;2023-05-10T06:29:11;57.40;;;33.50;;
31638;SDS011;18248;51.522;7.020;2023-05-10T06:32:13;62.40;;;36.03;;
31638;SDS011;18248;51.522;7.020;2023-05-10T06:35:11;62.13;;;37.20;;
31638;SDS011;18248;51.522;7.020;2023-05-10T06:38:10;65.90;;;37.55;;
31638;SDS011;18248;51.522;7.020;2023-05-10T06:41:09;60.05;;;34.80;;
31638;SDS011;18248;51.522;7.020;2023-05-10T06:44:07;64.63;;;36.05;;
31638;SDS011;18248;51.522;7.020;2023-05-10T06:47:06;64.25;;;36.17;;
31638;SDS011;18248;51.522;7.020;2023-05-10T06:50:05;66.90;;;34.63;;
31638;SDS011;18248;51.522;7.020;2023-05-10T06:53:04;68.75;;;38.30;;
31638;SDS011;18248;51.522;7.020;2023-05-10T06:56:03;69.85;;;38.08;;
31638;SDS011;18248;51.522;7.020;2023-05-10T06:59:01;72.97;;;38.97;;
31638;SDS011;18248;51.522;7.020;2023-05-10T07:02:00;67.00;;;36.90;;
31638;SDS011;18248;51.522;7.020;2023-05-10T07:04:59;67.32;;;37.53;;
31638;SDS011;18248;51.522;7.020;2023-05-10T07:07:59;64.70;;;37.05;;
31638;SDS011;18248;51.522;7.020;2023-05-10T07:11:02;70.10;;;36.95;;
31638;SDS011;18248;51.522;7.020;2023-05-10T07:14:02;63.58;;;37.47;;
31638;SDS011;18248;51.522;7.020;2023-05-10T07:17:00;59.35;;;34.28;;
31638;SDS011;18248;51.522;7.020;2023-05-10T07:20:00;66.57;;;37.33;;
31638;SDS011;18248;51.522;7.020;2023-05-10T07:22:59;68.28;;;35.55;;
31638;SDS011;18248;51.522;7.020;2023-05-10T07:25:58;64.90;;;35.58;;
31638;SDS011;18248;51.522;7.020;2023-05-10T07:28:57;56.50;;;34.60;;
31638;SDS011;18248;51.522;7.020;2023-05-10T07:31:56;57.70;;;32.70;;
31638;SDS011;18248;51.522;7.020;2023-05-10T07:34:55;55.20;;;33.85;;
31638;SDS011;18248;51.522;7.020;2023-05-10T07:37:54;61.17;;;33.53;;
31638;SDS011;18248;51.522;7.020;2023-05-10T07:40:52;58.40;;;33.72;;
31638;SDS011;18248;51.522;7.020;2023-05-10T07:43:51;53.63;;;32.58;;
31638;SDS011;18248;51.522;7.020;2023-05-10T07:46:50;63.60;;;33.75;;
31638;SDS011;18248;51.522;7.020;2023-05-10T07:49:48;56.13;;;32.72;;
31638;SDS011;18248;51.522;7.020;2023-05-10T07:52:47;59.15;;;33.38;;
31638;SDS011;18248;51.522;7.020;2023-05-10T07:55:58;57.80;;;32.20;;
31638;SDS011;18248;51.522;7.020;2023-05-10T07:58:57;58.30;;;33.13;;
31638;SDS011;18248;51.522;7.020;2023-05-10T08:01:56;57.13;;;31.33;;
31638;SDS011;18248;51.522;7.020;2023-05-10T08:04:54;59.90;;;34.28;;
31638;SDS011;18248;51.522;7.020;2023-05-10T08:07:53;50.03;;;29.95;;
31638;SDS011;18248;51.522;7.020;2023-05-10T08:10:53;66.28;;;35.30;;
31638;SDS011;18248;51.522;7.020;2023-05-10T08:13:52;60.58;;;34.50;;
31638;SDS011;18248;51.522;7.020;2023-05-10T08:16:50;63.63;;;33.10;;
31638;SDS011;18248;51.522;7.020;2023-05-10T08:19:49;62.05;;;31.30;;
31638;SDS011;18248;51.522;7.020;2023-05-10T08:22:47;53.47;;;30.08;;
31638;SDS011;18248;51.522;7.020;2023-05-10T08:25:47;45.55;;;25.55;;
31638;SDS011;18248;51.522;7.020;2023-05-10T08:28:46;48.70;;;25.50;;
31638;SDS011;18248;51.522;7.020;2023-05-10T08:31:44;45.88;;;25.60;;
31638;SDS011;18248;51.522;7.020;2023-05-10T08:34:43;45.70;;;27.58;;
31638;SDS011;18248;51.522;7.020;2023-05-10T08:37:41;50.10;;;28.23;;
31638;SDS011;18248;51.522;7.020;2023-05-10T08:40:43;47.63;;;26.42;;
31638;SDS011;18248;51.522;7.020;2023-05-10T08:43:43;56.58;;;27.08;;
31638;SDS011;18248;51.522;7.020;2023-05-10T08:46:45;55.97;;;29.25;;
31638;SDS011;18248;51.522;7.020;2023-05-10T08:49:45;44.58;;;23.17;;
31638;SDS011;18248;51.522;7.020;2023-05-10T08:52:48;42.58;;;23.77;;
31638;SDS011;18248;51.522;7.020;2023-05-10T08:55:50;49.70;;;25.83;;
31638;SDS011;18248;51.522;7.020;2023-05-10T08:58:49;50.35;;;25.73;;
31638;SDS011;18248;51.522;7.020;2023-05-10T09:01:48;40.95;;;23.58;;
31638;SDS011;18248;51.522;7.020;2023-05-10T09:04:48;43.80;;;21.23;;
31638;SDS011;18248;51.522;7.020;2023-05-10T09:07:48;34.33;;;19.75;;
31638;SDS011;18248;51.522;7.020;2023-05-10T09:10:46;38.85;;;20.77;;
31638;SDS011;18248;51.522;7.020;2023-05-10T09:13:47;38.08;;;21.85;;
31638;SDS011;18248;51.522;7.020;2023-05-10T09:16:48;40.28;;;21.65;;
31638;SDS011;18248;51.522;7.020;2023-05-10T09:19:47;37.22;;;20.83;;
31638;SDS011;18248;51.522;7.020;2023-05-10T09:22:46;36.63;;;20.83;;
31638;SDS011;18248;51.522;7.020;2023-05-10T09:25:45;39.10;;;21.52;;
31638;SDS011;18248;51.522;7.020;2023-05-10T09:28:50;37.67;;;20.83;;
31638;SDS011;18248;51.522;7.020;2023-05-10T09:31:50;38.90;;;21.67;;
31638;SDS011;18248;51.522;7.020;2023-05-10T09:34:49;37.97;;;20.38;;
31638;SDS011;18248;51.522;7.020;2023-05-10T09:37:49;40.42;;;21.02;;
31638;SDS011;18248;51.522;7.020;2023-05-10T09:40:52;36.80;;;21.60;;
31638;SDS011;18248;51.522;7.020;2023-05-10T09:43:55;37.45;;;19.17;;
31638;SDS011;18248;51.522;7.020;2023-05-10T09:46:54;34.22;;;19.45;;
31638;SDS011;18248;51.522;7.020;2023-05-10T09:49:53;41.35;;;20.85;;
31638;SDS011;18248;51.522;7.020;2023-05-10T09:52:56;39.25;;;22.45;;
31638;SDS011;18248;51.522;7.020;2023-05-10T09:55:57;43.05;;;22.67;;
31638;SDS011;18248;51.522;7.020;2023-05-10T09:59:01;35.20;;;20.08;;
31638;SDS011;18248;51.522;7.020;2023-05-10T10:02:00;37.47;;;20.30;;
31638;SDS011;18248;51.522;7.020;2023-05-10T10:05:00;39.95;;;22.08;;
31638;SDS011;18248;51.522;7.020;2023-05-10T10:08:02;40.55;;;21.63;;
31638;SDS011;18248;51.522;7.020;2023-05-10T10:11:02;36.80;;;20.27;;
31638;SDS011;18248;51.522;7.020;2023-05-10T10:14:01;33.45;;;19.80;;
31638;SDS011;18248;51.522;7.020;2023-05-10T10:17:00;32.92;;;16.90;;
31638;SDS011;18248;51.522;7.020;2023-05-10T10:19:59;31.95;;;19.13;;
31638;SDS011;18248;51.522;7.020;2023-05-10T10:22:57;30.77;;;16.70;;
31638;SDS011;18248;51.522;7.020;2023-05-10T10:25:56;35.72;;;18.17;;
31638;SDS011;18248;51.522;7.020;2023-05-10T10:29:14;34.38;;;19.90;;
31638;SDS011;18248;51.522;7.020;2023-05-10T10:35:52;34.58;;;18.33;;
31638;SDS011;18248;51.522;7.020;2023-05-10T10:38:55;33.75;;;20.88;;
31638;SDS011;18248;51.522;7.020;2023-05-10T10:41:58;35.83;;;20.15;;
31638;SDS011;18248;51.522;7.020;2023-05-10T10:45:11;36.40;;;21.90;;
31638;SDS011;18248;51.522;7.020;2023-05-10T10:48:20;50.85;;;27.95;;
31638;SDS011;18248;51.522;7.020;2023-05-10T10:51:21;61.67;;;32.72;;
31638;SDS011;18248;51.522;7.020;2023-05-10T10:54:26;40.10;;;25.02;;
31638;SDS011;18248;51.522;7.020;2023-05-10T10:57:26;37.53;;;21.77;;
31638;SDS011;18248;51.522;7.020;2023-05-10T11:00:31;36.45;;;22.20;;
31638;SDS011;18248;51.522;7.020;2023-05-10T11:03:30;37.47;;;22.73;;
31638;SDS011;18248;51.522;7.020;2023-05-10T11:06:30;36.65;;;22.00;;
31638;SDS011;18248;51.522;7.020;2023-05-10T11:09:36;32.22;;;20.50;;
31638;SDS011;18248;51.522;7.020;2023-05-10T11:12:50;35.35;;;21.77;;
31638;SDS011;18248;51.522;7.020;2023-05-10T11:16:20;43.42;;;19.60;;
31638;SDS011;18248;51.522;7.020;2023-05-10T11:19:22;33.00;;;17.33;;
31638;SDS011;18248;51.522;7.020;2023-05-10T11:25:27;30.98;;;16.00;;
31638;SDS011;18248;51.522;7.020;2023-05-10T11:28:26;29.15;;;17.45;;
31638;SDS011;18248;51.522;7.020;2023-05-10T11:31:25;26.85;;;16.35;;
31638;SDS011;18248;51.522;7.020;2023-05-10T11:34:25;25.77;;;15.05;;
31638;SDS011;18248;51.522;7.020;2023-05-10T11:37:31;25.55;;;14.65;;
31638;SDS011;18248;51.522;7.020;2023-05-10T11:40:32;35.13;;;15.80;;
31638;SDS011;18248;51.522;7.020;2023-05-10T11:43:30;25.02;;;16.25;;
31638;SDS011;18248;51.522;7.020;2023-05-10T11:46:30;29.00;;;16.17;;
31638;SDS011;18248;51.522;7.020;2023-05-10T11:49:28;33.67;;;17.27;;
31638;SDS011;18248;51.522;7.020;2023-05-10T11:52:27;28.95;;;17.23;;
31638;SDS011;18248;51.522;7.020;2023-05-10T11:55:26;33.90;;;18.73;;
31638;SDS011;18248;51.522;7.020;2023-05-10T11:58:25;33.72;;;17.67;;
31638;SDS011;18248;51.522;7.020;2023-05-10T12:01:24;30.98;;;17.35;;
31638;SDS011;18248;51.522;7.020;2023-05-10T12:04:24;27.35;;;15.65;;
31638;SDS011;18248;51.522;7.020;2023-05-10T12:07:24;30.50;;;16.58;;
31638;SDS011;18248;51.522;7.020;2023-05-10T12:10:25;23.67;;;15.68;;
31638;SDS011;18248;51.522;7.020;2023-05-10T12:13:24;27.20;;;15.60;;
31638;SDS011;18248;51.522;7.020;2023-05-10T12:16:24;26.88;;;16.05;;
31638;SDS011;18248;51.522;7.020;2023-05-10T12:19:25;28.50;;;17.33;;
31638;SDS011;18248;51.522;7.020;2023-05-10T12:22:24;27.75;;;18.02;;
31638;SDS011;18248;51.522;7.020;2023-05-10T12:25:23;26.10;;;15.43;;
31638;SDS011;18248;51.522;7.020;2023-05-10T12:28:29;24.42;;;15.73;;
31638;SDS011;18248;51.522;7.020;2023-05-10T12:31:28;32.03;;;16.60;;
31638;SDS011;18248;51.522;7.020;2023-05-10T12:34:31;22.58;;;14.75;;
31638;SDS011;18248;51.522;7.020;2023-05-10T12:37:34;24.02;;;15.60;;
31638;SDS011;18248;51.522;7.020;2023-05-10T12:40:36;19.63;;;14.20;;
31638;SDS011;18248;51.522;7.020;2023-05-10T12:43:35;19.67;;;12.57;;
31638;SDS011;18248;51.522;7.020;2023-05-10T12:46:34;20.95;;;13.00;;
31638;SDS011;18248;51.522;7.020;2023-05-10T12:49:33;16.23;;;11.38;;
31638;SDS011;18248;51.522;7.020;2023-05-10T12:52:32;15.68;;;9.48;;
31638;SDS011;18248;51.522;7.020;2023-05-10T12:55:30;14.25;;;10.02;;
31638;SDS011;18248;51.522;7.020;2023-05-10T12:58:29;20.08;;;10.07;;
31638;SDS011;18248;51.522;7.020;2023-05-10T13:01:29;13.80;;;7.65;;
31638;SDS011;18248;51.522;7.020;2023-05-10T13:04:28;12.88;;;6.30;;
31638;SDS011;18248;51.522;7.020;2023-05-10T13:07:26;11.77;;;5.55;;
31638;SDS011;18248;51.522;7.020;2023-05-10T13:10:25;10.30;;;5.43;;
31638;SDS011;18248;51.522;7.020;2023-05-10T13:13:23;17.13;;;5.15;;
31638;SDS011;18248;51.522;7.020;2023-05-10T13:16:22;9.35;;;4.80;;
31638;SDS011;18248;51.522;7.020;2023-05-10T13:19:20;9.95;;;5.05;;
31638;SDS011;18248;51.522;7.020;2023-05-10T13:22:19;14.32;;;5.28;;
31638;SDS011;18248;51.522;7.020;2023-05-10T13:25:18;10.85;;;5.22;;
31638;SDS011;18248;51.522;7.020;2023-05-10T13:28:16;12.93;;;6.18;;
31638;SDS011;18248;51.522;7.020;2023-05-10T13:31:15;14.65;;;5.47;;
31638;SDS011;18248;51.522;7.020;2023-05-10T13:34:13;12.55;;;4.40;;
31638;SDS011;18248;51.522;7.020;2023-05-10T13:37:12;11.77;;;4.55;;
31638;SDS011;18248;51.522;7.020;2023-05-10T13:40:10;23.40;;;6.43;;
31638;SDS011;18248;51.522;7.020;2023-05-10T13:43:09;14.18;;;6.38;;
31638;SDS011;18248;51.522;7.020;2023-05-10T13:46:08;12.88;;;6.30;;
31638;SDS011;18248;51.522;7.020;2023-05-10T13:49:06;10.27;;;6.32;;
31638;SDS011;18248;51.522;7.020;2023-05-10T13:52:05;13.55;;;5.55;;
31638;SDS011;18248;51.522;7.020;2023-05-10T13:55:07;12.55;;;5.60;;
31638;SDS011;18248;51.522;7.020;2023-05-10T13:58:06;11.25;;;5.43;;
31638;SDS011;18248;51.522;7.020;2023-05-10T14:01:05;12.30;;;6.80;;
31638;SDS011;18248;51.522;7.020;2023-05-10T14:04:03;11.70;;;7.18;;
31638;SDS011;18248;51.522;7.020;2023-05-10T14:07:02;10.10;;;6.25;;
31638;SDS011;18248;51.522;7.020;2023-05-10T14:10:00;12.77;;;6.78;;
31638;SDS011;18248;51.522;7.020;2023-05-10T14:12:59;9.25;;;5.78;;
31638;SDS011;18248;51.522;7.020;2023-05-10T14:15:57;8.88;;;4.70;;
31638;SDS011;18248;51.522;7.020;2023-05-10T14:18:58;9.20;;;6.10;;
31638;SDS011;18248;51.522;7.020;2023-05-10T14:21:56;10.82;;;6.63;;
31638;SDS011;18248;51.522;7.020;2023-05-10T14:24:56;14.93;;;8.57;;
31638;SDS011;18248;51.522;7.020;2023-05-10T14:27:55;13.77;;;8.45;;
31638;SDS011;18248;51.522;7.020;2023-05-10T14:30:53;15.82;;;6.93;;
31638;SDS011;18248;51.522;7.020;2023-05-10T14:33:52;9.40;;;5.32;;
31638;SDS011;18248;51.522;7.020;2023-05-10T14:36:51;11.35;;;5.80;;
31638;SDS011;18248;51.522;7.020;2023-05-10T14:39:49;15.07;;;6.57;;
31638;SDS011;18248;51.522;7.020;2023-05-10T14:42:48;10.35;;;6.13;;
31638;SDS011;18248;51.522;7.020;2023-05-10T14:45:47;12.80;;;6.75;;
31638;SDS011;18248;51.522;7.020;2023-05-10T14:48:46;13.32;;;5.18;;
31638;SDS011;18248;51.522;7.020;2023-05-10T14:51:44;10.23;;;6.60;;
31638;SDS011;18248;51.522;7.020;2023-05-10T14:54:43;12.45;;;7.07;;
31638;SDS011;18248;51.522;7.020;2023-05-10T14:57:43;10.73;;;5.70;;
31638;SDS011;18248;51.522;7.020;2023-05-10T15:00:45;10.65;;;5.60;;
31638;SDS011;18248;51.522;7.020;2023-05-10T15:03:44;11.02;;;5.07;;
31638;SDS011;18248;51.522;7.020;2023-05-10T15:06:42;8.00;;;5.13;;
31638;SDS011;18248;51.522;7.020;2023-05-10T15:09:41;10.32;;;7.28;;
31638;SDS011;18248;51.522;7.020;2023-05-10T15:12:40;11.27;;;6.28;;
31638;SDS011;18248;51.522;7.020;2023-05-10T15:15:38;8.70;;;5.38;;
31638;SDS011;18248;51.522;7.020;2023-05-10T15:18:37;12.82;;;6.25;;
31638;SDS011;18248;51.522;7.020;2023-05-10T15:21:35;10.40;;;5.65;;
31638;SDS011;18248;51.522;7.020;2023-05-10T15:24:36;8.70;;;6.65;;
31638;SDS011;18248;51.522;7.020;2023-05-10T15:27:35;12.60;;;6.90;;
31638;SDS011;18248;51.522;7.020;2023-05-10T15:30:33;11.63;;;7.07;;
31638;SDS011;18248;51.522;7.020;2023-05-10T15:33:33;11.70;;;7.00;;
31638;SDS011;18248;51.522;7.020;2023-05-10T15:36:31;13.05;;;9.68;;
31638;SDS011;18248;51.522;7.020;2023-05-10T15:39:31;13.77;;;8.80;;
31638;SDS011;18248;51.522;7.020;2023-05-10T15:42:30;12.93;;;7.95;;
31638;SDS011;18248;51.522;7.020;2023-05-10T15:45:29;9.75;;;7.03;;
31638;SDS011;18248;51.522;7.020;2023-05-10T15:48:28;9.68;;;6.60;;
31638;SDS011;18248;51.522;7.020;2023-05-10T15:51:29;10.35;;;6.22;;
31638;SDS011;18248;51.522;7.020;2023-05-10T15:54:27;11.40;;;5.80;;
31638;SDS011;18248;51.522;7.020;2023-05-10T15:57:26;16.33;;;5.45;;
31638;SDS011;18248;51.522;7.020;2023-05-10T16:00:24;9.25;;;5.75;;
31638;SDS011;18248;51.522;7.020;2023-05-10T16:03:23;6.20;;;4.97;;
31638;SDS011;18248;51.522;7.020;2023-05-10T16:06:22;12.18;;;7.53;;
31638;SDS011;18248;51.522;7.020;2023-05-10T16:09:20;9.32;;;6.07;;
31638;SDS011;18248;51.522;7.020;2023-05-10T16:12:20;8.25;;;6.38;;
31638;SDS011;18248;51.522;7.020;2023-05-10T16:15:19;16.30;;;9.23;;
31638;SDS011;18248;51.522;7.020;2023-05-10T16:18:18;11.57;;;8.07;;
31638;SDS011;18248;51.522;7.020;2023-05-10T16:21:17;11.43;;;8.10;;
31638;SDS011;18248;51.522;7.020;2023-05-10T16:24:15;15.88;;;8.95;;
31638;SDS011;18248;51.522;7.020;2023-05-10T16:27:15;17.55;;;9.40;;
31638;SDS011;18248;51.522;7.020;2023-05-10T16:30:15;14.82;;;10.77;;
31638;SDS011;18248;51.522;7.020;2023-05-10T16:33:14;14.82;;;9.45;;
31638;SDS011;18248;51.522;7.020;2023-05-10T16:36:13;12.85;;;10.60;;
31638;SDS011;18248;51.522;7.020;2023-05-10T16:39:12;18.05;;;10.93;;
31638;SDS011;18248;51.522;7.020;2023-05-10T16:42:10;23.77;;;12.80;;
31638;SDS011;18248;51.522;7.020;2023-05-10T16:45:09;20.65;;;14.57;;
31638;SDS011;18248;51.522;7.020;2023-05-10T16:48:10;19.30;;;11.70;;
31638;SDS011;18248;51.522;7.020;2023-05-10T16:51:09;15.70;;;11.77;;
31638;SDS011;18248;51.522;7.020;2023-05-10T16:54:07;14.88;;;9.80;;
31638;SDS011;18248;51.522;7.020;2023-05-10T16:57:07;13.77;;;8.77;;
31638;SDS011;18248;51.522;7.020;2023-05-10T17:00:06;11.93;;;7.40;;
31638;SDS011;18248;51.522;7.020;2023-05-10T17:03:05;14.05;;;8.20;;
31638;SDS011;18248;51.522;7.020;2023-05-10T17:06:04;7.88;;;5.88;;
31638;SDS011;18248;51.522;7.020;2023-05-10T17:09:03;10.85;;;5.95;;
31638;SDS011;18248;51.522;7.020;2023-05-10T17:12:02;10.18;;;6.57;;
31638;SDS011;18248;51.522;7.020;2023-05-10T17:15:01;7.97;;;5.60;;
31638;SDS011;18248;51.522;7.020;2023-05-10T17:17:59;10.40;;;6.18;;
31638;SDS011;18248;51.522;7.020;2023-05-10T17:20:58;6.55;;;4.68;;
31638;SDS011;18248;51.522;7.020;2023-05-10T17:23:57;8.57;;;5.15;;
31638;SDS011;18248;51.522;7.020;2023-05-10T17:26:55;8.80;;;4.80;;
31638;SDS011;18248;51.522;7.020;2023-05-10T17:29:57;10.05;;;5.47;;
31638;SDS011;18248;51.522;7.020;2023-05-10T17:32:56;8.55;;;4.97;;
31638;SDS011;18248;51.522;7.020;2023-05-10T17:35:57;8.20;;;5.57;;
31638;SDS011;18248;51.522;7.020;2023-05-10T17:38:56;9.93;;;6.85;;
31638;SDS011;18248;51.522;7.020;2023-05-10T17:41:55;13.30;;;7.00;;
31638;SDS011;18248;51.522;7.020;2023-05-10T17:44:54;10.20;;;7.03;;
31638;SDS011;18248;51.522;7.020;2023-05-10T17:47:53;13.18;;;6.82;;
31638;SDS011;18248;51.522;7.020;2023-05-10T17:50:51;9.90;;;5.97;;
31638;SDS011;18248;51.522;7.020;2023-05-10T17:53:50;12.63;;;5.93;;
31638;SDS011;18248;51.522;7.020;2023-05-10T17:56:48;11.82;;;6.15;;
31638;SDS011;18248;51.522;7.020;2023-05-10T17:59:47;9.55;;;5.90;;
31638;SDS011;18248;51.522;7.020;2023-05-10T18:02:45;9.40;;;6.10;;
31638;SDS011;18248;51.522;7.020;2023-05-10T18:05:44;9.35;;;5.30;;
31638;SDS011;18248;51.522;7.020;2023-05-10T18:08:44;11.13;;;6.13;;
31638;SDS011;18248;51.522;7.020;2023-05-10T18:11:42;9.18;;;5.80;;